createdAt,value
2022-10-06T00:02:19.212Z,3.60
2022-10-06T00:04:47.013Z,4.10
2022-10-06T00:07:15.164Z,4.03
2022-10-06T00:09:42.277Z,3.83
2022-10-06T00:12:09.938Z,3.90
2022-10-06T00:14:37.655Z,3.57
2022-10-06T00:17:04.732Z,4.00
2022-10-06T00:19:31.489Z,3.87
2022-10-06T00:21:58.287Z,3.70
2022-10-06T00:24:24.973Z,3.63
2022-10-06T00:26:51.682Z,3.90
2022-10-06T00:29:18.809Z,4.03
2022-10-06T00:31:45.742Z,3.70
2022-10-06T00:34:12.840Z,3.90
2022-10-06T00:36:39.819Z,3.90
2022-10-06T00:39:06.634Z,3.90
2022-10-06T00:41:33.354Z,3.80
2022-10-06T00:44:00.175Z,3.73
2022-10-06T00:46:26.908Z,3.60
2022-10-06T00:49:02.388Z,3.70
2022-10-06T00:51:31.795Z,4.00
2022-10-06T00:53:58.533Z,3.90
2022-10-06T00:56:26.065Z,3.00
2022-10-06T00:58:53.082Z,3.87
2022-10-06T01:01:19.803Z,3.93
2022-10-06T01:03:57.028Z,3.40
2022-10-06T01:06:23.668Z,3.57
2022-10-06T01:08:50.923Z,3.67
2022-10-06T01:11:17.523Z,3.33
2022-10-06T01:13:45.258Z,3.27
2022-10-06T01:16:26.967Z,3.73
2022-10-06T01:18:56.044Z,3.47
2022-10-06T01:21:34.760Z,3.30
2022-10-06T01:24:02.935Z,4.20
2022-10-06T01:26:31.715Z,3.63
2022-10-06T01:28:58.558Z,3.90
2022-10-06T01:31:26.231Z,4.10
2022-10-06T01:33:54.161Z,3.90
2022-10-06T01:36:21.196Z,3.83
2022-10-06T01:38:47.922Z,3.83
2022-10-06T01:41:14.582Z,3.87
2022-10-06T01:43:41.210Z,3.67
2022-10-06T01:46:07.906Z,4.30
2022-10-06T01:48:36.892Z,4.23
2022-10-06T01:51:03.828Z,3.47
2022-10-06T01:53:30.568Z,4.03
2022-10-06T01:56:00.392Z,3.97
2022-10-06T01:58:27.516Z,3.70
2022-10-06T02:00:54.474Z,3.77
2022-10-06T02:03:21.140Z,3.30
2022-10-06T02:05:47.753Z,3.67
2022-10-06T02:08:14.625Z,3.20
2022-10-06T02:10:41.263Z,3.07
2022-10-06T02:13:07.892Z,2.70
2022-10-06T02:15:34.696Z,3.17
2022-10-06T02:18:01.395Z,2.37
2022-10-06T02:20:28.151Z,2.20
2022-10-06T02:22:54.775Z,1.40
2022-10-06T02:25:21.509Z,1.00
2022-10-06T02:27:48.123Z,1.00
2022-10-06T02:30:14.910Z,1.10
2022-10-06T02:32:43.099Z,0.83
2022-10-06T02:35:12.787Z,0.70
2022-10-06T02:37:40.767Z,0.50
2022-10-06T02:40:08.585Z,0.40
2022-10-06T02:42:39.667Z,0.50
2022-10-06T02:45:07.243Z,0.60
2022-10-06T02:47:35.412Z,0.40
2022-10-06T02:50:05.214Z,0.70
2022-10-06T02:52:34.298Z,0.30
2022-10-06T02:55:02.236Z,0.50
2022-10-06T02:57:28.957Z,0.40
2022-10-06T02:59:55.838Z,0.40
2022-10-06T03:02:22.967Z,0.50
2022-10-06T03:04:49.981Z,0.50
2022-10-06T03:07:16.817Z,0.40
2022-10-06T03:09:43.444Z,0.30
2022-10-06T03:12:10.167Z,0.50
2022-10-06T03:14:36.780Z,0.40
2022-10-06T03:17:03.626Z,0.40
2022-10-06T03:19:30.283Z,0.40
2022-10-06T03:21:56.925Z,0.40
2022-10-06T03:24:23.551Z,0.30
2022-10-06T03:26:50.360Z,0.33
2022-10-06T03:29:17.121Z,0.53
2022-10-06T03:31:43.994Z,0.50
2022-10-06T03:34:11.079Z,0.20
2022-10-06T03:36:37.757Z,0.40
2022-10-06T03:39:05.630Z,0.50
2022-10-06T03:41:34.540Z,0.33
2022-10-06T03:44:01.858Z,0.30
2022-10-06T03:46:33.482Z,1.90
2022-10-06T03:49:01.296Z,0.30
2022-10-06T03:51:37.323Z,0.40
2022-10-06T03:54:04.552Z,0.40
2022-10-06T03:56:33.609Z,0.30
2022-10-06T03:59:03.183Z,0.50
2022-10-06T04:01:39.277Z,0.70
2022-10-06T04:04:06.947Z,0.40
2022-10-06T04:06:35.834Z,0.40
2022-10-06T04:09:05.825Z,0.57
2022-10-06T04:11:35.845Z,0.50
2022-10-06T04:14:08.311Z,0.77
2022-10-06T04:16:40.379Z,0.57
2022-10-06T04:19:10.004Z,0.97
2022-10-06T04:21:38.564Z,0.30
2022-10-06T04:24:06.528Z,0.73
2022-10-06T04:26:36.488Z,0.33
2022-10-06T04:29:03.702Z,0.33
2022-10-06T04:31:32.922Z,0.23
2022-10-06T04:34:01.283Z,0.57
2022-10-06T04:36:30.925Z,0.60
2022-10-06T04:38:59.783Z,0.70
2022-10-06T04:41:29.088Z,0.40
2022-10-06T04:43:56.045Z,0.63
2022-10-06T04:46:42.096Z,0.67
2022-10-06T04:49:14.727Z,0.57
2022-10-06T04:51:44.638Z,0.70
2022-10-06T04:54:11.356Z,1.03
2022-10-06T04:56:38.016Z,0.70
2022-10-06T04:59:04.665Z,0.60
2022-10-06T05:01:36.388Z,0.47
2022-10-06T05:04:05.902Z,0.73
2022-10-06T05:06:35.226Z,0.60
2022-10-06T05:09:05.311Z,0.90
2022-10-06T05:11:31.971Z,0.70
2022-10-06T05:14:00.001Z,1.40
2022-10-06T05:16:29.393Z,0.80
2022-10-06T05:18:56.096Z,0.60
2022-10-06T05:21:28.546Z,0.43
2022-10-06T05:23:55.322Z,0.77
2022-10-06T05:26:24.187Z,1.00
2022-10-06T05:28:51.128Z,0.73
2022-10-06T05:31:19.473Z,0.80
2022-10-06T05:33:46.857Z,0.87
2022-10-06T05:36:18.620Z,1.03
2022-10-06T05:38:45.601Z,0.60
2022-10-06T05:41:21.161Z,0.90
2022-10-06T05:43:48.314Z,0.60
2022-10-06T05:46:30.256Z,0.83
2022-10-06T05:49:05.093Z,1.40
2022-10-06T05:51:33.886Z,0.60
2022-10-06T05:54:01.072Z,0.90
2022-10-06T05:56:30.625Z,0.80
2022-10-06T05:58:58.845Z,1.70
2022-10-06T06:01:37.271Z,0.80
2022-10-06T06:04:09.491Z,0.67
2022-10-06T06:06:46.317Z,0.90
2022-10-06T06:09:21.310Z,1.63
2022-10-06T06:11:49.950Z,0.70
2022-10-06T06:14:19.275Z,0.60
2022-10-06T06:16:46.413Z,0.83
2022-10-06T06:19:14.322Z,0.70
2022-10-06T06:21:41.075Z,1.00
2022-10-06T06:24:07.766Z,0.83
2022-10-06T06:26:37.144Z,0.97
2022-10-06T06:29:05.256Z,1.20
2022-10-06T06:31:37.348Z,0.87
2022-10-06T06:34:06.624Z,1.53
2022-10-06T06:36:40.761Z,0.80
2022-10-06T06:39:12.768Z,1.07
2022-10-06T06:41:41.957Z,1.00
2022-10-06T06:44:11.358Z,0.90
2022-10-06T06:46:39.193Z,0.80
2022-10-06T06:49:06.845Z,0.90
2022-10-06T06:51:40.348Z,1.07
2022-10-06T06:54:08.144Z,1.10
2022-10-06T06:56:35.972Z,0.80
2022-10-06T06:59:08.792Z,1.10
2022-10-06T07:01:35.511Z,1.17
2022-10-06T07:04:02.191Z,1.20
2022-10-06T07:06:30.564Z,0.77
2022-10-06T07:08:58.858Z,0.83
2022-10-06T07:11:41.127Z,1.03
2022-10-06T07:14:12.422Z,0.80
2022-10-06T07:16:58.224Z,0.83
2022-10-06T07:19:43.854Z,0.90
2022-10-06T07:22:28.988Z,0.83
2022-10-06T07:25:08.486Z,1.07
2022-10-06T07:27:43.096Z,0.80
2022-10-06T07:30:13.287Z,1.33
2022-10-06T07:32:39.926Z,1.10
2022-10-06T07:35:07.137Z,0.80
2022-10-06T07:37:36.674Z,0.80
2022-10-06T07:40:05.952Z,0.67
2022-10-06T07:42:47.769Z,1.03
2022-10-06T07:45:45.137Z,0.90
2022-10-06T07:48:17.558Z,1.87
2022-10-06T07:50:47.735Z,1.20
2022-10-06T07:53:15.159Z,1.17
2022-10-06T07:55:45.304Z,1.03
2022-10-06T07:58:24.055Z,1.27
2022-10-06T08:00:52.911Z,1.37
2022-10-06T08:03:20.089Z,1.07
2022-10-06T08:05:48.591Z,1.23
2022-10-06T08:08:16.460Z,1.60
2022-10-06T08:10:44.166Z,1.57
2022-10-06T08:13:10.861Z,1.57
2022-10-06T08:15:37.572Z,1.13
2022-10-06T08:18:16.545Z,1.40
2022-10-06T08:20:51.382Z,1.13
2022-10-06T08:23:17.969Z,1.40
2022-10-06T08:25:50.872Z,1.40
2022-10-06T08:28:17.889Z,0.93
2022-10-06T08:30:44.694Z,1.40
2022-10-06T08:33:11.706Z,1.27
2022-10-06T08:35:39.521Z,1.17
2022-10-06T08:38:07.532Z,1.30
2022-10-06T08:40:34.566Z,1.27
2022-10-06T08:43:13.885Z,1.57
2022-10-06T08:45:44.120Z,1.10
2022-10-06T08:48:29.964Z,1.30
2022-10-06T08:51:15.229Z,1.33
2022-10-06T08:53:48.719Z,0.97
2022-10-06T08:56:22.570Z,1.30
2022-10-06T08:58:59.345Z,1.27
2022-10-06T09:01:33.158Z,1.47
2022-10-06T09:04:03.362Z,1.30
2022-10-06T09:06:39.088Z,1.13
2022-10-06T09:09:41.294Z,1.40
2022-10-06T09:12:21.981Z,1.07
2022-10-06T09:14:56.543Z,1.40
2022-10-06T09:17:30.372Z,1.43
2022-10-06T09:20:02.078Z,1.43
2022-10-06T09:22:31.708Z,1.10
2022-10-06T09:25:18.372Z,1.70
2022-10-06T09:27:50.549Z,1.43
2022-10-06T09:30:17.715Z,1.30
2022-10-06T09:32:47.602Z,1.53
2022-10-06T09:35:22.461Z,1.87
2022-10-06T09:38:08.337Z,1.30
2022-10-06T09:40:48.535Z,1.47
2022-10-06T09:43:41.502Z,1.20
2022-10-06T09:46:27.875Z,1.00
2022-10-06T09:49:19.415Z,1.27
2022-10-06T09:52:12.471Z,1.20
2022-10-06T09:54:41.781Z,1.23
2022-10-06T09:57:28.812Z,1.20
2022-10-06T09:59:59.678Z,1.53
2022-10-06T10:02:38.325Z,1.60
2022-10-06T10:05:16.202Z,1.33
2022-10-06T10:07:43.207Z,1.07
2022-10-06T10:10:18.350Z,1.20
2022-10-06T10:13:00.546Z,1.10
2022-10-06T10:15:33.993Z,1.20
2022-10-06T10:18:03.467Z,0.70
2022-10-06T10:20:35.262Z,1.10
2022-10-06T10:23:04.037Z,1.00
2022-10-06T10:25:33.437Z,1.00
2022-10-06T10:28:17.293Z,1.50
2022-10-06T10:30:58.962Z,1.10
2022-10-06T10:33:49.609Z,1.63
2022-10-06T10:36:51.680Z,1.40
2022-10-06T10:39:31.899Z,1.07
2022-10-06T10:42:02.869Z,1.00
2022-10-06T10:44:41.806Z,1.20
2022-10-06T10:47:19.246Z,0.90
2022-10-06T10:50:11.756Z,1.10
2022-10-06T10:52:44.352Z,1.33
2022-10-06T10:55:35.943Z,1.40
2022-10-06T10:58:13.454Z,1.27
2022-10-06T11:00:44.350Z,1.30
2022-10-06T11:03:11.702Z,1.30
2022-10-06T11:05:38.722Z,1.30
2022-10-06T11:08:09.176Z,1.27
2022-10-06T11:10:46.259Z,1.70
2022-10-06T11:13:16.031Z,1.47
2022-10-06T11:16:07.060Z,1.10
2022-10-06T11:18:36.843Z,1.33
2022-10-06T11:21:40.082Z,1.27
2022-10-06T11:24:31.820Z,0.67
2022-10-06T11:27:17.594Z,1.00
2022-10-06T11:29:49.031Z,1.83
2022-10-06T11:32:18.887Z,0.70
2022-10-06T11:34:49.610Z,1.10
2022-10-06T11:37:38.151Z,1.07
2022-10-06T11:40:28.080Z,1.70
2022-10-06T11:43:19.748Z,1.30
2022-10-06T11:45:59.992Z,1.00
2022-10-06T11:48:29.809Z,1.00
2022-10-06T11:51:17.378Z,1.17
2022-10-06T11:53:45.246Z,1.03
2022-10-06T11:56:17.886Z,1.30
2022-10-06T11:58:56.794Z,1.00
2022-10-06T12:01:32.594Z,1.20
2022-10-06T12:04:08.280Z,1.13
2022-10-06T12:06:43.976Z,1.17
2022-10-06T12:09:26.043Z,1.50
2022-10-06T12:11:58.082Z,1.40
2022-10-06T12:17:44.373Z,1.37
2022-10-06T12:20:16.602Z,1.13
2022-10-06T12:23:03.845Z,1.30
2022-10-06T12:25:52.629Z,1.33
2022-10-06T12:28:37.500Z,1.27
2022-10-06T12:31:39.995Z,1.33
2022-10-06T12:34:50.538Z,1.20
2022-10-06T12:37:39.928Z,1.30
2022-10-06T12:40:49.684Z,1.37
2022-10-06T12:43:19.470Z,1.30
2022-10-06T12:45:55.336Z,1.23
2022-10-06T12:48:24.502Z,1.40
2022-10-06T12:51:38.848Z,2.03
2022-10-06T12:54:19.469Z,1.67
2022-10-06T12:57:14.569Z,1.33
2022-10-06T12:59:41.836Z,1.50
2022-10-06T13:02:20.349Z,1.00
2022-10-06T13:05:01.023Z,1.10
2022-10-06T13:07:33.680Z,1.07
2022-10-06T13:10:15.724Z,1.30
2022-10-06T13:12:47.421Z,1.20
2022-10-06T13:15:15.658Z,1.20
2022-10-06T13:18:01.994Z,1.10
2022-10-06T13:20:28.588Z,0.90
2022-10-06T13:22:57.414Z,1.67
2022-10-06T13:25:24.250Z,1.10
2022-10-06T13:27:52.490Z,1.57
2022-10-06T13:30:21.790Z,1.00
2022-10-06T13:32:53.536Z,1.13
2022-10-06T13:35:24.418Z,1.80
2022-10-06T13:37:53.113Z,1.23
2022-10-06T13:40:44.178Z,1.13
2022-10-06T13:43:18.568Z,1.33
2022-10-06T13:45:48.395Z,1.10
2022-10-06T13:48:19.812Z,0.90
2022-10-06T13:50:48.956Z,1.23
2022-10-06T13:53:45.512Z,1.10
2022-10-06T13:56:34.560Z,1.27
2022-10-06T13:59:15.865Z,1.10
2022-10-06T14:01:42.756Z,1.37
2022-10-06T14:04:18.966Z,0.90
2022-10-06T14:06:58.227Z,1.00
2022-10-06T14:09:32.719Z,1.37
2022-10-06T14:12:15.087Z,1.20
2022-10-06T14:14:50.425Z,0.90
2022-10-06T14:17:25.783Z,1.90
2022-10-06T14:19:52.614Z,0.93
2022-10-06T14:22:48.767Z,1.10
2022-10-06T14:25:15.593Z,1.00
2022-10-06T14:27:42.267Z,0.90
2022-10-06T14:30:10.545Z,1.50
2022-10-06T14:32:38.624Z,1.30
2022-10-06T14:35:07.131Z,1.00
2022-10-06T14:37:34.567Z,0.70
2022-10-06T14:40:01.720Z,1.40
2022-10-06T14:42:28.651Z,1.60
2022-10-06T14:44:55.366Z,0.90
2022-10-06T14:47:22.054Z,1.13
2022-10-06T14:49:48.719Z,1.00
2022-10-06T14:52:15.358Z,1.10
2022-10-06T14:54:43.061Z,0.90
2022-10-06T14:57:09.752Z,0.80
2022-10-06T14:59:36.394Z,0.80
2022-10-06T15:02:03.522Z,0.80
2022-10-06T15:04:31.259Z,1.27
2022-10-06T15:07:16.580Z,0.83
2022-10-06T15:09:43.228Z,0.90
2022-10-06T15:12:09.914Z,1.20
2022-10-06T15:14:39.525Z,0.90
2022-10-06T15:17:06.335Z,1.07
2022-10-06T15:19:34.064Z,1.10
2022-10-06T15:22:01.039Z,1.27
2022-10-06T15:24:27.689Z,0.90
2022-10-06T15:27:13.132Z,1.20
2022-10-06T15:29:39.810Z,1.07
2022-10-06T15:32:06.943Z,1.00
2022-10-06T15:34:34.545Z,1.37
2022-10-06T15:37:03.732Z,1.90
2022-10-06T15:39:34.284Z,0.93
2022-10-06T15:42:00.982Z,1.07
2022-10-06T15:44:31.114Z,1.07
2022-10-06T15:46:58.104Z,1.47
2022-10-06T15:49:26.579Z,1.20
2022-10-06T15:51:56.780Z,0.77
2022-10-06T15:54:37.441Z,1.30
2022-10-06T15:57:06.317Z,0.97
2022-10-06T15:59:34.348Z,1.20
2022-10-06T16:02:07.712Z,0.87
2022-10-06T16:04:40.014Z,1.33
2022-10-06T16:07:09.153Z,0.80
2022-10-06T16:09:53.810Z,1.10
2022-10-06T16:12:22.837Z,1.20
2022-10-06T16:14:49.506Z,1.07
2022-10-06T16:17:17.198Z,1.00
2022-10-06T16:19:44.322Z,1.40
2022-10-06T16:22:16.173Z,1.10
2022-10-06T16:24:42.875Z,1.00
2022-10-06T16:27:13.878Z,0.80
2022-10-06T16:29:40.896Z,0.97
2022-10-06T16:32:07.721Z,1.30
2022-10-06T16:34:34.364Z,1.10
2022-10-06T16:37:00.969Z,1.07
2022-10-06T16:39:27.602Z,1.20
2022-10-06T16:41:54.642Z,0.83
2022-10-06T16:44:21.418Z,1.40
2022-10-06T16:46:48.160Z,1.20
2022-10-06T16:49:15.044Z,1.50
2022-10-06T16:51:43.691Z,1.50
2022-10-06T16:54:12.727Z,1.50
2022-10-06T16:56:44.850Z,1.42
2022-10-06T16:59:22.553Z,1.17
2022-10-06T17:01:50.671Z,1.03
2022-10-06T17:04:19.684Z,1.30
2022-10-06T17:06:51.977Z,1.03
2022-10-06T17:09:21.556Z,1.00
2022-10-06T17:11:51.081Z,1.00
2022-10-06T17:14:18.447Z,1.40
2022-10-06T17:16:46.751Z,1.87
2022-10-06T17:19:14.857Z,1.03
2022-10-06T17:21:47.165Z,1.17
2022-10-06T17:24:17.568Z,1.33
2022-10-06T17:26:47.262Z,1.10
2022-10-06T17:29:21.136Z,1.67
2022-10-06T17:31:50.409Z,1.37
2022-10-06T17:34:21.564Z,1.07
2022-10-06T17:36:51.241Z,1.83
2022-10-06T17:39:20.350Z,1.73
2022-10-06T17:41:48.897Z,1.50
2022-10-06T17:44:25.791Z,1.53
2022-10-06T17:46:55.346Z,1.20
2022-10-06T17:49:24.020Z,1.53
2022-10-06T17:51:52.794Z,1.53
2022-10-06T17:54:21.922Z,1.70
2022-10-06T17:56:51.382Z,1.70
2022-10-06T17:59:23.266Z,1.60
2022-10-06T18:01:51.666Z,1.80
2022-10-06T18:04:19.255Z,2.33
2022-10-06T18:06:46.905Z,3.70
2022-10-06T18:09:15.065Z,3.13
2022-10-06T18:11:44.098Z,2.40
2022-10-06T18:14:12.282Z,2.00
2022-10-06T18:17:02.097Z,1.50
2022-10-06T18:19:29.748Z,1.80
2022-10-06T18:22:00.677Z,1.73
2022-10-06T18:24:29.360Z,1.90
2022-10-06T18:26:59.605Z,1.97
2022-10-06T18:29:31.455Z,1.53
2022-10-06T18:32:14.506Z,2.80
2022-10-06T18:37:31.867Z,2.00
2022-10-06T18:39:58.496Z,1.43
2022-10-06T18:42:25.551Z,1.50
2022-10-06T18:45:11.127Z,1.40
2022-10-06T18:47:56.454Z,1.63
2022-10-06T18:50:23.400Z,1.30
2022-10-06T18:52:50.015Z,1.40
2022-10-06T18:55:17.117Z,1.27
2022-10-06T18:57:45.084Z,1.70
2022-10-06T19:00:12.403Z,1.73
2022-10-06T19:02:39.114Z,1.20
2022-10-06T19:05:06.012Z,1.40
2022-10-06T19:07:32.705Z,1.60
2022-10-06T19:09:59.424Z,1.00
2022-10-06T19:12:26.075Z,1.27
2022-10-06T19:14:52.823Z,1.97
2022-10-06T19:17:22.702Z,2.03
2022-10-06T19:19:51.126Z,1.40
2022-10-06T19:22:19.916Z,1.13
2022-10-06T19:24:48.426Z,2.70
2022-10-06T19:27:17.843Z,1.33
2022-10-06T19:29:46.783Z,1.27
2022-10-06T19:32:16.522Z,1.30
2022-10-06T19:34:44.157Z,1.50
2022-10-06T19:37:11.416Z,1.53
2022-10-06T19:39:42.601Z,2.27
2022-10-06T19:42:35.697Z,2.33
2022-10-06T19:45:03.384Z,1.87
2022-10-06T19:47:29.986Z,1.63
2022-10-06T19:50:02.159Z,1.60
2022-10-06T19:52:31.180Z,1.50
2022-10-06T19:54:57.936Z,1.60
2022-10-06T19:57:25.119Z,1.23
2022-10-06T19:59:51.774Z,1.33
2022-10-06T20:02:18.507Z,1.53
2022-10-06T20:04:45.398Z,2.00
2022-10-06T20:07:12.490Z,1.97
2022-10-06T20:09:39.243Z,1.53
2022-10-06T20:12:06.098Z,1.80
2022-10-06T20:14:32.853Z,2.40
2022-10-06T20:16:59.740Z,1.80
2022-10-06T20:19:26.652Z,1.80
2022-10-06T20:21:53.665Z,2.00
2022-10-06T20:24:23.060Z,1.90
2022-10-06T20:26:50.622Z,1.50
2022-10-06T20:29:21.016Z,1.70
2022-10-06T20:31:51.041Z,1.97
2022-10-06T20:34:21.378Z,1.63
2022-10-06T20:36:51.906Z,2.23
2022-10-06T20:39:41.057Z,2.43
2022-10-06T20:42:13.852Z,1.70
2022-10-06T20:44:42.068Z,2.00
2022-10-06T20:47:10.180Z,2.00
2022-10-06T20:49:37.280Z,1.40
2022-10-06T20:52:05.048Z,1.50
2022-10-06T20:54:34.909Z,1.50
2022-10-06T20:57:04.702Z,2.00
2022-10-06T20:59:32.349Z,1.37
2022-10-06T21:02:00.017Z,1.80
2022-10-06T21:04:27.877Z,1.47
2022-10-06T21:06:54.784Z,1.53
2022-10-06T21:09:21.604Z,2.07
2022-10-06T21:11:48.596Z,2.10
2022-10-06T21:14:15.790Z,1.70
2022-10-06T21:16:44.358Z,1.60
2022-10-06T21:19:20.405Z,1.77
2022-10-06T21:21:53.126Z,1.87
2022-10-06T21:24:20.528Z,2.20
2022-10-06T21:26:47.238Z,2.20
2022-10-06T21:29:15.688Z,2.40
2022-10-06T21:31:43.654Z,1.90
2022-10-06T21:34:10.785Z,2.40
2022-10-06T21:36:38.289Z,2.30
2022-10-06T21:39:05.840Z,2.00
2022-10-06T21:41:35.337Z,1.60
2022-10-06T21:44:07.166Z,1.30
2022-10-06T21:46:39.220Z,1.87
2022-10-06T21:49:09.320Z,1.30
2022-10-06T21:51:36.350Z,1.30
2022-10-06T21:54:03.170Z,1.53
2022-10-06T21:56:32.463Z,1.47
2022-10-06T21:58:59.724Z,1.63
2022-10-06T22:01:31.658Z,1.20
2022-10-06T22:04:00.136Z,1.53
2022-10-06T22:06:28.455Z,1.87
2022-10-06T22:08:56.325Z,1.70
2022-10-06T22:11:28.451Z,1.33
2022-10-06T22:13:58.023Z,1.77
2022-10-06T22:16:26.823Z,1.50
2022-10-06T22:18:54.159Z,1.80
2022-10-06T22:21:32.814Z,1.17
2022-10-06T22:24:07.951Z,1.30
2022-10-06T22:26:37.384Z,1.60
2022-10-06T22:29:06.448Z,1.33
2022-10-06T22:31:34.097Z,2.03
2022-10-06T22:34:04.656Z,1.50
2022-10-06T22:36:31.848Z,1.40
2022-10-06T22:38:58.537Z,1.63
2022-10-06T22:41:25.429Z,1.57
2022-10-06T22:43:57.627Z,1.73
2022-10-06T22:46:29.665Z,1.77
2022-10-06T22:48:56.584Z,1.50
2022-10-06T22:51:26.041Z,2.00
2022-10-06T22:53:57.640Z,1.53
2022-10-06T22:56:26.501Z,1.40
2022-10-06T22:58:53.192Z,1.30
2022-10-06T23:01:20.193Z,1.10
2022-10-06T23:03:47.443Z,1.30
2022-10-06T23:06:16.346Z,1.30
2022-10-06T23:08:43.323Z,1.30
2022-10-06T23:11:12.960Z,1.57
2022-10-06T23:13:40.179Z,1.10
2022-10-06T23:16:09.367Z,1.20
2022-10-06T23:18:38.334Z,1.67
2022-10-06T23:21:06.808Z,1.57
2022-10-06T23:23:33.937Z,1.40
2022-10-06T23:26:04.893Z,1.50
2022-10-06T23:28:31.621Z,1.23
2022-10-06T23:30:58.282Z,1.30
2022-10-06T23:33:24.928Z,1.37
2022-10-06T23:35:59.669Z,1.80
2022-10-06T23:38:26.434Z,1.70
2022-10-06T23:40:53.240Z,2.00
2022-10-06T23:43:20.413Z,1.80
2022-10-06T23:45:47.524Z,1.60
2022-10-06T23:48:14.627Z,1.70
2022-10-06T23:50:41.509Z,1.80
2022-10-06T23:53:08.833Z,1.67
2022-10-06T23:55:35.507Z,1.60
2022-10-06T23:58:02.145Z,1.93
